Terminal Aerodrome Forecast
Issued by NWS

Home | Current Version | Previous Version | Text Only | Print | Product List | Glossary On
Versions: 1 2 3 4 5 6 7 8 9 10 11 12 13
000
FTUS42 KMLB 231409 AAA
TAFLEE
TAF AMD
KLEE 231409Z 2314/2412 20011G17KT P6SM SCT020 BKN024
     FM231800 23013G21KT P6SM VCTS SCT040CB BKN250
     FM232300 24012KT P6SM SCT040 BKN250=

USA.gov is the U.S. government's official web portal to all federal, state and local government web resources and services.